createdAt,value
2023-11-19T00:00:21.253Z,3.38
2023-11-19T00:02:49.233Z,3.35
2023-11-19T00:05:17.029Z,3.02
2023-11-19T00:07:44.756Z,3.00
2023-11-19T00:10:15.292Z,3.24
2023-11-19T00:12:45.510Z,3.21
2023-11-19T00:15:14.517Z,2.80
2023-11-19T00:17:46.215Z,3.10
2023-11-19T00:20:22.944Z,3.10
2023-11-19T00:22:53.968Z,3.02
2023-11-19T00:25:23.180Z,3.04
2023-11-19T00:27:52.780Z,3.01
2023-11-19T00:30:20.681Z,3.01
2023-11-19T00:32:48.548Z,2.94
2023-11-19T00:35:16.467Z,2.72
2023-11-19T00:37:44.464Z,2.58
2023-11-19T00:40:12.828Z,2.49
2023-11-19T00:42:40.457Z,2.43
2023-11-19T00:45:12.055Z,2.33
2023-11-19T00:47:40.183Z,2.52
2023-11-19T00:50:10.817Z,2.53
2023-11-19T00:52:39.275Z,2.46
2023-11-19T00:55:08.276Z,2.51
2023-11-19T00:57:37.011Z,2.51
2023-11-19T01:00:36.177Z,2.57
2023-11-19T01:03:04.296Z,2.53
2023-11-19T01:05:32.277Z,2.43
2023-11-19T01:07:59.873Z,2.24
2023-11-19T01:10:27.688Z,2.15
2023-11-19T01:12:55.246Z,2.08
2023-11-19T01:15:24.114Z,1.93
2023-11-19T01:17:53.059Z,2.17
2023-11-19T01:20:22.229Z,2.09
2023-11-19T01:22:51.273Z,2.12
2023-11-19T01:25:19.400Z,2.12
2023-11-19T01:27:47.052Z,2.01
2023-11-19T01:30:14.831Z,2.04
2023-11-19T01:32:42.902Z,1.81
2023-11-19T01:35:10.577Z,2.07
2023-11-19T01:37:38.208Z,2.08
2023-11-19T01:40:07.844Z,2.07
2023-11-19T01:42:39.871Z,2.08
2023-11-19T01:45:10.382Z,2.20
2023-11-19T01:47:39.097Z,2.16
2023-11-19T01:50:09.851Z,2.15
2023-11-19T01:52:39.495Z,2.14
2023-11-19T01:55:10.515Z,2.12
2023-11-19T01:57:39.704Z,2.08
2023-11-19T02:00:12.991Z,1.96
2023-11-19T02:02:42.503Z,1.92
2023-11-19T02:05:12.964Z,1.96
2023-11-19T02:07:40.905Z,1.98
2023-11-19T02:10:13.798Z,1.94
2023-11-19T02:12:45.948Z,1.61
2023-11-19T02:15:13.831Z,1.59
2023-11-19T02:17:41.941Z,1.88
2023-11-19T02:20:12.936Z,1.84
2023-11-19T02:22:41.345Z,1.77
2023-11-19T02:25:31.417Z,1.74
2023-11-19T02:28:03.569Z,1.87
2023-11-19T02:30:33.156Z,1.88
2023-11-19T02:33:06.655Z,1.87
2023-11-19T02:35:34.960Z,1.89
2023-11-19T02:38:05.062Z,1.90
2023-11-19T02:40:32.763Z,1.88
2023-11-19T02:43:00.552Z,1.88
2023-11-19T02:45:32.160Z,1.86
2023-11-19T02:48:02.686Z,1.80
2023-11-19T02:50:30.700Z,1.52
2023-11-19T02:52:58.500Z,1.77
2023-11-19T02:55:26.669Z,1.72
2023-11-19T02:57:55.001Z,1.64
2023-11-19T03:00:25.576Z,1.71
2023-11-19T03:03:18.722Z,1.63
2023-11-19T03:05:50.122Z,1.36
2023-11-19T03:10:48.609Z,1.57
2023-11-19T03:13:18.224Z,1.53
2023-11-19T03:15:46.176Z,1.50
2023-11-19T03:18:14.322Z,1.48
2023-11-19T03:20:41.900Z,1.20
2023-11-19T03:23:09.519Z,1.43
2023-11-19T03:25:37.906Z,1.33
2023-11-19T03:28:05.905Z,1.37
2023-11-19T03:30:34.711Z,1.40
2023-11-19T03:33:03.953Z,1.32
2023-11-19T03:35:31.823Z,1.32
2023-11-19T03:37:59.391Z,1.33
2023-11-19T03:40:27.253Z,1.30
2023-11-19T03:42:54.949Z,1.32
2023-11-19T03:45:22.476Z,1.32
2023-11-19T03:47:51.551Z,0.99
2023-11-19T03:50:21.266Z,1.30
2023-11-19T03:52:49.590Z,1.28
2023-11-19T03:55:17.591Z,1.29
2023-11-19T03:57:45.185Z,1.05
2023-11-19T04:00:15.348Z,1.27
2023-11-19T04:02:43.310Z,1.34
2023-11-19T04:05:13.806Z,1.32
2023-11-19T04:07:41.371Z,1.16
2023-11-19T04:10:09.483Z,1.11
2023-11-19T04:12:37.352Z,0.88
2023-11-19T04:15:05.837Z,1.19
2023-11-19T04:17:33.703Z,1.27
2023-11-19T04:20:01.527Z,1.17
2023-11-19T04:22:29.142Z,0.93
2023-11-19T04:24:57.090Z,0.95
2023-11-19T04:27:25.050Z,1.08
2023-11-19T04:29:52.679Z,1.04
2023-11-19T04:32:20.635Z,0.98
2023-11-19T04:34:50.207Z,0.85
2023-11-19T04:37:17.784Z,0.68
2023-11-19T04:39:47.391Z,0.89
2023-11-19T04:42:18.254Z,0.77
2023-11-19T04:44:46.251Z,0.76
2023-11-19T04:47:15.349Z,0.82
2023-11-19T04:49:46.215Z,0.73
2023-11-19T04:52:14.191Z,0.68
2023-11-19T04:54:45.430Z,0.69
2023-11-19T04:57:13.599Z,0.67
2023-11-19T04:59:43.219Z,0.58
2023-11-19T05:02:11.078Z,0.70
2023-11-19T05:04:41.526Z,0.69
2023-11-19T05:07:09.534Z,0.66
2023-11-19T05:09:37.074Z,0.63
2023-11-19T05:12:04.761Z,0.62
2023-11-19T05:14:32.704Z,0.50
2023-11-19T05:17:00.348Z,0.50
2023-11-19T05:19:27.966Z,0.52
2023-11-19T05:21:55.926Z,0.56
2023-11-19T05:24:24.050Z,0.53
2023-11-19T05:26:53.046Z,0.34
2023-11-19T05:29:21.085Z,0.25
2023-11-19T05:31:49.055Z,0.41
2023-11-19T05:34:16.817Z,0.37
2023-11-19T05:36:44.760Z,0.23
2023-11-19T05:39:12.632Z,0.35
2023-11-19T05:41:40.228Z,0.39
2023-11-19T05:44:08.103Z,0.10
2023-11-19T05:46:41.546Z,0.17
2023-11-19T05:49:14.386Z,0.15
2023-11-19T05:51:42.405Z,0.47
2023-11-19T05:54:11.839Z,0.50
2023-11-19T05:56:39.542Z,0.45
2023-11-19T05:59:16.366Z,0.43
2023-11-19T06:01:47.643Z,0.50
2023-11-19T06:04:15.658Z,0.60
2023-11-19T06:06:43.328Z,0.68
2023-11-19T06:09:14.308Z,0.74
2023-11-19T06:11:42.587Z,0.49
2023-11-19T06:14:10.097Z,0.87
2023-11-19T06:16:38.245Z,0.69
2023-11-19T06:19:06.399Z,0.94
2023-11-19T06:21:34.128Z,0.97
2023-11-19T06:24:01.663Z,1.01
2023-11-19T06:26:29.604Z,1.02
2023-11-19T06:28:57.159Z,1.10
2023-11-19T06:31:24.797Z,1.15
2023-11-19T06:33:52.796Z,1.17
2023-11-19T06:36:20.363Z,0.94
2023-11-19T06:38:47.924Z,1.29
2023-11-19T06:41:15.793Z,1.30
2023-11-19T06:43:44.918Z,1.33
2023-11-19T06:46:19.024Z,1.47
2023-11-19T06:48:47.219Z,1.63
2023-11-19T06:51:14.995Z,1.63
2023-11-19T06:53:45.803Z,1.68
2023-11-19T06:56:22.390Z,1.70
2023-11-19T06:58:50.761Z,1.89
2023-11-19T07:01:19.499Z,2.04
2023-11-19T07:03:48.185Z,1.85
2023-11-19T07:06:15.854Z,2.13
2023-11-19T07:08:46.909Z,2.28
2023-11-19T07:11:18.411Z,2.39
2023-11-19T07:13:47.537Z,2.38
2023-11-19T07:16:16.025Z,2.48
2023-11-19T07:18:45.151Z,2.52
2023-11-19T07:21:13.277Z,2.36
2023-11-19T07:23:40.840Z,2.72
2023-11-19T07:26:11.974Z,2.77
2023-11-19T07:28:41.129Z,2.85
2023-11-19T07:31:11.318Z,2.91
2023-11-19T07:33:40.744Z,2.92
2023-11-19T07:36:09.070Z,2.89
2023-11-19T07:38:36.755Z,3.01
2023-11-19T07:41:04.584Z,3.08
2023-11-19T07:43:32.823Z,3.09
2023-11-19T07:46:00.451Z,3.20
2023-11-19T07:48:28.350Z,3.35
2023-11-19T07:50:56.208Z,3.48
2023-11-19T07:53:23.753Z,3.66
2023-11-19T07:55:51.296Z,3.74
2023-11-19T07:58:19.157Z,3.87
2023-11-19T08:00:46.814Z,4.00
2023-11-19T08:03:14.911Z,4.10
2023-11-19T08:05:42.598Z,4.19
2023-11-19T08:08:10.207Z,4.30
2023-11-19T08:10:38.132Z,4.38
2023-11-19T08:13:05.751Z,4.54
2023-11-19T08:15:33.450Z,4.38
2023-11-19T08:18:01.404Z,4.64
2023-11-19T08:20:29.314Z,4.78
2023-11-19T08:22:56.987Z,4.64
2023-11-19T08:25:24.761Z,5.08
2023-11-19T08:27:52.303Z,5.21
2023-11-19T08:30:20.202Z,5.30
2023-11-19T08:32:48.002Z,5.53
2023-11-19T08:35:17.176Z,5.61
2023-11-19T08:37:47.094Z,5.66
2023-11-19T08:40:18.513Z,5.77
2023-11-19T08:42:46.130Z,5.86
2023-11-19T08:45:13.735Z,5.92
2023-11-19T08:47:41.924Z,6.03
2023-11-19T08:50:10.635Z,5.97
2023-11-19T08:52:38.355Z,6.09
2023-11-19T08:55:06.744Z,6.15
2023-11-19T08:57:34.330Z,5.87
2023-11-19T09:00:02.047Z,6.33
2023-11-19T09:02:29.954Z,6.28
2023-11-19T09:04:57.619Z,6.10
2023-11-19T09:07:25.258Z,6.38
2023-11-19T09:09:53.109Z,6.50
2023-11-19T09:12:20.766Z,6.33
2023-11-19T09:14:48.415Z,6.72
2023-11-19T09:17:16.745Z,6.68
2023-11-19T09:19:44.241Z,6.68
2023-11-19T09:22:11.777Z,6.71
2023-11-19T09:24:39.834Z,6.31
2023-11-19T09:27:07.911Z,6.58
2023-11-19T09:29:35.435Z,6.56
2023-11-19T09:32:06.074Z,6.49
2023-11-19T09:34:33.814Z,6.59
2023-11-19T09:37:01.420Z,6.28
2023-11-19T09:39:29.258Z,6.60
2023-11-19T09:41:56.873Z,6.51
2023-11-19T09:44:26.913Z,6.53
2023-11-19T09:46:58.920Z,6.46
2023-11-19T09:51:59.608Z,6.68
2023-11-19T09:54:27.408Z,6.82
2023-11-19T09:57:01.448Z,6.77
2023-11-19T09:59:31.061Z,6.59
2023-11-19T10:01:58.784Z,6.94
2023-11-19T10:04:31.380Z,6.53
2023-11-19T10:06:59.143Z,6.93
2023-11-19T10:09:27.066Z,6.65
2023-11-19T10:11:54.679Z,6.91
2023-11-19T10:14:24.926Z,7.04
2023-11-19T10:16:53.053Z,7.04
2023-11-19T10:19:24.415Z,6.91
2023-11-19T10:21:52.245Z,6.89
2023-11-19T10:24:33.584Z,6.88
2023-11-19T10:27:03.871Z,6.85
2023-11-19T10:29:31.841Z,6.90
2023-11-19T10:32:23.710Z,6.89
2023-11-19T10:34:47.854Z,6.90
2023-11-19T10:37:33.092Z,6.87
2023-11-19T10:40:01.204Z,6.87
2023-11-19T10:42:28.828Z,6.81
2023-11-19T10:44:56.354Z,6.61
2023-11-19T10:49:55.305Z,7.00
2023-11-19T10:52:22.963Z,7.11
2023-11-19T10:54:55.256Z,7.19
2023-11-19T10:57:23.165Z,7.15
2023-11-19T10:59:56.945Z,7.06
2023-11-19T11:02:27.589Z,7.38
2023-11-19T11:04:56.440Z,7.37
2023-11-19T11:07:32.587Z,7.21
2023-11-19T11:10:10.633Z,7.48
2023-11-19T11:12:43.317Z,7.21
2023-11-19T11:15:16.888Z,7.58
2023-11-19T11:17:46.234Z,7.56
2023-11-19T11:20:14.460Z,7.60
2023-11-19T11:22:57.430Z,7.34
2023-11-19T11:25:50.525Z,7.56
2023-11-19T11:28:33.218Z,7.57
2023-11-19T11:31:26.781Z,7.65
2023-11-19T11:34:18.986Z,7.58
2023-11-19T11:36:52.774Z,7.66
2023-11-19T11:39:23.507Z,7.67
2023-11-19T11:42:23.560Z,7.65
2023-11-19T11:45:06.201Z,7.66
2023-11-19T11:47:57.764Z,7.40
2023-11-19T11:50:26.301Z,7.68
2023-11-19T11:52:57.363Z,7.69
2023-11-19T11:55:28.844Z,7.44
2023-11-19T11:57:56.884Z,7.69
2023-11-19T12:00:30.380Z,7.60
2023-11-19T12:03:01.096Z,7.60
2023-11-19T12:05:29.916Z,7.60
2023-11-19T12:08:07.805Z,7.60
2023-11-19T12:11:00.491Z,7.65
2023-11-19T12:13:49.756Z,7.69
2023-11-19T12:16:17.373Z,7.42
2023-11-19T12:18:46.208Z,7.66
2023-11-19T12:21:29.973Z,7.57
2023-11-19T12:24:05.065Z,7.50
2023-11-19T12:26:36.703Z,7.48
2023-11-19T12:29:09.417Z,7.56
2023-11-19T12:31:38.143Z,7.61
2023-11-19T12:34:07.954Z,7.61
2023-11-19T12:36:36.167Z,7.67
2023-11-19T12:39:05.053Z,7.52
2023-11-19T12:41:33.036Z,7.66
2023-11-19T12:44:13.710Z,7.49
2023-11-19T12:46:41.936Z,7.81
2023-11-19T12:49:12.509Z,7.89
2023-11-19T12:51:40.109Z,7.89
2023-11-19T12:54:08.081Z,7.96
2023-11-19T12:56:37.625Z,7.87
2023-11-19T12:59:14.214Z,8.07
2023-11-19T13:01:43.685Z,8.10
2023-11-19T13:04:20.789Z,8.10
2023-11-19T13:07:05.105Z,8.10
2023-11-19T13:09:36.802Z,8.07
2023-11-19T13:12:15.662Z,8.00
2023-11-19T13:14:45.518Z,7.96
2023-11-19T13:17:15.516Z,7.93
2023-11-19T13:19:43.074Z,7.80
2023-11-19T13:22:10.756Z,7.73
2023-11-19T13:24:41.393Z,7.68
2023-11-19T13:27:09.270Z,7.80
2023-11-19T13:29:37.230Z,7.59
2023-11-19T13:32:06.841Z,7.81
2023-11-19T13:34:34.630Z,7.86
2023-11-19T13:37:02.308Z,7.92
2023-11-19T13:39:30.252Z,7.92
2023-11-19T13:44:29.106Z,7.95
2023-11-19T13:46:56.950Z,7.83
2023-11-19T13:49:25.355Z,7.88
2023-11-19T13:51:55.327Z,7.98
2023-11-19T13:54:24.315Z,8.02
2023-11-19T13:56:56.818Z,8.03
2023-11-19T13:59:24.982Z,7.97
2023-11-19T14:01:52.484Z,7.79
2023-11-19T14:04:20.604Z,7.75
2023-11-19T14:06:48.549Z,7.69
2023-11-19T14:09:16.400Z,7.66
2023-11-19T14:11:44.771Z,7.71
2023-11-19T14:14:12.267Z,7.69
2023-11-19T14:16:39.939Z,7.43
2023-11-19T14:19:07.903Z,7.63
2023-11-19T14:21:35.639Z,7.64
2023-11-19T14:24:03.427Z,7.42
2023-11-19T14:26:31.444Z,7.59
2023-11-19T14:28:59.338Z,7.55
2023-11-19T14:31:29.533Z,7.55
2023-11-19T14:33:57.790Z,7.50
2023-11-19T14:36:25.567Z,7.46
2023-11-19T14:38:53.245Z,7.38
2023-11-19T14:41:21.123Z,7.34
2023-11-19T14:43:49.225Z,7.34
2023-11-19T14:46:16.930Z,7.34
2023-11-19T14:48:44.947Z,7.33
2023-11-19T14:51:12.596Z,7.30
2023-11-19T14:53:40.343Z,7.21
2023-11-19T14:56:14.190Z,7.15
2023-11-19T14:58:42.237Z,7.06
2023-11-19T15:01:13.607Z,7.11
2023-11-19T15:06:12.710Z,6.99
2023-11-19T15:08:40.365Z,6.96
2023-11-19T15:11:08.669Z,6.89
2023-11-19T15:13:38.995Z,6.87
2023-11-19T15:16:07.474Z,6.81
2023-11-19T15:18:35.148Z,6.81
2023-11-19T15:21:03.455Z,6.79
2023-11-19T15:23:31.071Z,6.72
2023-11-19T15:25:58.904Z,6.72
2023-11-19T15:28:26.907Z,6.69
2023-11-19T15:30:54.565Z,6.71
2023-11-19T15:33:23.640Z,6.64
2023-11-19T15:35:51.902Z,6.66
2023-11-19T15:38:19.540Z,6.67
2023-11-19T15:40:47.264Z,6.67
2023-11-19T15:43:15.550Z,6.58
2023-11-19T15:45:43.145Z,6.59
2023-11-19T15:48:14.923Z,6.61
2023-11-19T15:50:45.772Z,6.58
2023-11-19T15:53:13.934Z,6.55
2023-11-19T15:55:41.575Z,6.37
2023-11-19T15:58:09.645Z,6.57
2023-11-19T16:00:37.575Z,6.55
2023-11-19T16:03:05.671Z,6.48
2023-11-19T16:05:33.668Z,6.29
2023-11-19T16:08:01.557Z,6.48
2023-11-19T16:10:30.693Z,6.50
2023-11-19T16:12:58.670Z,6.51
2023-11-19T16:17:58.903Z,6.47
2023-11-19T16:20:26.704Z,6.51
2023-11-19T16:22:54.230Z,6.47
2023-11-19T16:25:22.065Z,6.19
2023-11-19T16:27:51.997Z,6.47
2023-11-19T16:30:21.795Z,6.49
2023-11-19T16:32:57.851Z,6.48
2023-11-19T16:35:26.619Z,6.51
2023-11-19T16:37:54.855Z,6.02
2023-11-19T16:40:24.926Z,6.23
2023-11-19T16:42:52.759Z,6.25
2023-11-19T16:45:20.853Z,6.50
2023-11-19T16:47:49.089Z,6.47
2023-11-19T16:50:20.419Z,6.49
2023-11-19T16:52:48.761Z,6.47
2023-11-19T16:55:17.087Z,6.53
2023-11-19T16:57:47.235Z,6.49
2023-11-19T17:00:15.456Z,6.51
2023-11-19T17:05:15.944Z,6.48
2023-11-19T17:07:44.269Z,6.48
2023-11-19T17:10:13.356Z,6.52
2023-11-19T17:12:41.173Z,6.47
2023-11-19T17:15:11.759Z,6.46
2023-11-19T17:17:40.276Z,6.50
2023-11-19T17:20:10.473Z,6.45
2023-11-19T17:22:41.752Z,6.25
2023-11-19T17:25:12.999Z,6.50
2023-11-19T17:27:41.239Z,6.50
2023-11-19T17:30:10.327Z,6.47
2023-11-19T17:32:38.769Z,6.45
2023-11-19T17:35:08.075Z,6.34
2023-11-19T17:37:35.763Z,6.41
2023-11-19T17:40:04.026Z,6.36
2023-11-19T17:42:32.235Z,6.23
2023-11-19T17:45:00.857Z,6.20
2023-11-19T17:47:28.978Z,6.07
2023-11-19T17:49:57.221Z,6.01
2023-11-19T17:52:25.168Z,5.95
2023-11-19T17:54:52.779Z,5.83
2023-11-19T17:57:21.181Z,5.82
2023-11-19T17:59:50.900Z,5.77
2023-11-19T18:02:19.869Z,5.74
2023-11-19T18:04:49.484Z,5.68
2023-11-19T18:07:21.498Z,5.66
2023-11-19T18:09:49.382Z,5.70
2023-11-19T18:12:17.186Z,5.73
2023-11-19T18:17:16.324Z,5.75
2023-11-19T18:19:44.251Z,5.83
2023-11-19T18:22:12.175Z,5.91
2023-11-19T18:24:40.700Z,5.93
2023-11-19T18:27:08.748Z,5.92
2023-11-19T18:29:36.734Z,5.74
2023-11-19T18:32:05.553Z,6.00
2023-11-19T18:34:33.711Z,6.01
2023-11-19T18:37:01.555Z,6.01
2023-11-19T18:39:29.594Z,6.02
2023-11-19T18:41:57.214Z,6.03
2023-11-19T18:44:24.847Z,6.01
2023-11-19T18:46:54.157Z,6.08
2023-11-19T18:49:21.668Z,6.04
2023-11-19T18:51:49.193Z,6.06
2023-11-19T18:54:19.729Z,5.80
2023-11-19T18:56:47.555Z,5.92
2023-11-19T18:59:15.262Z,5.70
2023-11-19T19:01:45.280Z,6.01
2023-11-19T19:04:15.169Z,5.99
2023-11-19T19:06:43.734Z,5.96
2023-11-19T19:09:11.310Z,5.91
2023-11-19T19:11:38.865Z,5.87
2023-11-19T19:14:08.672Z,5.88
2023-11-19T19:16:38.158Z,5.86
2023-11-19T19:19:06.047Z,5.79
2023-11-19T19:21:34.199Z,5.74
2023-11-19T19:24:04.387Z,5.68
2023-11-19T19:26:32.083Z,5.61
2023-11-19T19:29:00.222Z,5.56
2023-11-19T19:31:28.481Z,5.50
2023-11-19T19:33:59.202Z,5.30
2023-11-19T19:36:29.468Z,5.43
2023-11-19T19:38:57.770Z,5.38
2023-11-19T19:41:27.828Z,5.25
2023-11-19T19:43:56.367Z,5.25
2023-11-19T19:46:25.620Z,5.00
2023-11-19T19:48:55.023Z,5.09
2023-11-19T19:51:23.248Z,5.07
2023-11-19T19:53:51.159Z,5.07
2023-11-19T19:56:19.141Z,5.01
2023-11-19T19:58:47.710Z,4.98
2023-11-19T20:01:16.351Z,4.73
2023-11-19T20:03:44.970Z,4.55
2023-11-19T20:06:13.217Z,4.56
2023-11-19T20:08:41.641Z,4.60
2023-11-19T20:11:10.152Z,4.66
2023-11-19T20:13:38.286Z,4.66
2023-11-19T20:16:06.600Z,4.67
2023-11-19T20:18:34.929Z,4.69
2023-11-19T20:21:05.303Z,4.70
2023-11-19T20:23:33.302Z,4.71
2023-11-19T20:26:01.226Z,4.67
2023-11-19T20:28:29.122Z,4.71
2023-11-19T20:30:56.961Z,4.65
2023-11-19T20:33:25.828Z,4.64
2023-11-19T20:35:53.844Z,4.62
2023-11-19T20:38:21.422Z,4.61
2023-11-19T20:40:50.855Z,4.33
2023-11-19T20:43:18.733Z,4.56
2023-11-19T20:45:46.625Z,4.31
2023-11-19T20:48:14.479Z,4.48
2023-11-19T20:50:42.363Z,4.47
2023-11-19T20:53:09.977Z,4.47
2023-11-19T20:55:39.636Z,4.44
2023-11-19T20:58:09.806Z,4.42
2023-11-19T21:00:40.203Z,4.38
2023-11-19T21:03:11.074Z,4.33
2023-11-19T21:05:40.314Z,4.28
2023-11-19T21:08:08.327Z,3.99
2023-11-19T21:10:36.085Z,4.20
2023-11-19T21:13:04.367Z,4.01
2023-11-19T21:15:32.276Z,3.89
2023-11-19T21:18:02.128Z,4.06
2023-11-19T21:20:29.835Z,3.83
2023-11-19T21:22:57.724Z,3.76
2023-11-19T21:25:25.216Z,3.93
2023-11-19T21:27:52.899Z,3.79
2023-11-19T21:30:21.464Z,3.97
2023-11-19T21:32:49.125Z,3.77
2023-11-19T21:35:16.711Z,3.98
2023-11-19T21:37:44.580Z,4.02
2023-11-19T21:40:12.667Z,4.07
2023-11-19T21:42:40.261Z,4.05
2023-11-19T21:45:08.883Z,4.00
2023-11-19T21:47:36.402Z,3.81
2023-11-19T21:50:07.796Z,4.09
2023-11-19T21:52:36.439Z,4.02
2023-11-19T21:55:07.505Z,4.02
2023-11-19T21:57:35.333Z,3.95
2023-11-19T22:00:03.081Z,3.97
2023-11-19T22:02:31.607Z,3.97
2023-11-19T22:04:59.865Z,4.01
2023-11-19T22:07:27.521Z,4.05
2023-11-19T22:09:55.081Z,4.06
2023-11-19T22:12:22.978Z,4.04
2023-11-19T22:14:50.539Z,4.03
2023-11-19T22:17:18.151Z,4.13
2023-11-19T22:19:47.308Z,4.13
2023-11-19T22:22:14.925Z,4.26
2023-11-19T22:24:43.389Z,4.23
2023-11-19T22:27:11.419Z,4.26
2023-11-19T22:29:39.059Z,4.06
2023-11-19T22:32:06.982Z,4.39
2023-11-19T22:34:34.788Z,4.46
2023-11-19T22:37:02.349Z,4.49
2023-11-19T22:39:29.885Z,4.52
2023-11-19T22:41:57.665Z,4.58
2023-11-19T22:44:25.705Z,4.28
2023-11-19T22:46:53.239Z,4.04
2023-11-19T22:49:21.239Z,4.20
2023-11-19T22:51:48.896Z,4.31
2023-11-19T22:54:16.616Z,4.50
2023-11-19T22:56:44.478Z,4.57
2023-11-19T22:59:12.866Z,4.65
2023-11-19T23:01:42.059Z,4.70
2023-11-19T23:04:10.084Z,4.72
2023-11-19T23:06:37.949Z,4.51
2023-11-19T23:09:08.418Z,4.61
2023-11-19T23:11:36.300Z,4.52
2023-11-19T23:14:03.834Z,4.70
2023-11-19T23:16:32.116Z,4.73
2023-11-19T23:19:00.401Z,4.82
2023-11-19T23:21:27.947Z,4.81
2023-11-19T23:23:55.587Z,4.44
2023-11-19T23:26:23.439Z,4.76
2023-11-19T23:28:52.385Z,4.76
2023-11-19T23:31:22.412Z,4.55
2023-11-19T23:33:50.387Z,4.68
2023-11-19T23:36:17.974Z,4.80
2023-11-19T23:38:45.484Z,4.84
2023-11-19T23:41:13.713Z,4.89
2023-11-19T23:43:41.364Z,4.88
2023-11-19T23:46:10.204Z,4.96
2023-11-19T23:48:59.004Z,4.90
2023-11-19T23:51:27.130Z,4.96
2023-11-19T23:53:55.226Z,4.95
2023-11-19T23:56:22.738Z,4.94
2023-11-19T23:58:50.355Z,4.93
